createdAt,value
2023-05-22T00:02:08.293Z,21.20
2023-05-22T00:04:35.354Z,21.20
2023-05-22T00:07:02.522Z,21.20
2023-05-22T00:09:29.453Z,21.20
2023-05-22T00:11:56.395Z,21.10
2023-05-22T00:14:23.791Z,21.10
2023-05-22T00:16:50.708Z,21.10
2023-05-22T00:19:18.289Z,21.20
2023-05-22T00:21:46.955Z,21.10
2023-05-22T00:24:13.856Z,21.10
2023-05-22T00:26:40.864Z,21.10
2023-05-22T00:29:08.187Z,21.00
2023-05-22T00:31:35.212Z,21.10
2023-05-22T00:34:02.178Z,21.00
2023-05-22T00:36:29.429Z,21.10
2023-05-22T00:38:56.518Z,21.10
2023-05-22T00:41:24.159Z,21.10
2023-05-22T00:43:51.447Z,21.10
2023-05-22T00:46:22.919Z,21.10
2023-05-22T00:48:50.394Z,21.10
2023-05-22T00:51:17.862Z,21.10
2023-05-22T00:53:46.474Z,21.10
2023-05-22T00:56:15.202Z,21.10
2023-05-22T00:58:42.912Z,21.10
2023-05-22T01:01:11.609Z,21.10
2023-05-22T01:03:44.744Z,21.10
2023-05-22T01:06:16.022Z,21.10
2023-05-22T01:08:44.035Z,21.10
2023-05-22T01:11:19.318Z,21.00
2023-05-22T01:14:00.944Z,21.00
2023-05-22T01:16:50.781Z,21.00
2023-05-22T01:20:01.197Z,20.90
2023-05-22T01:22:31.395Z,20.90
2023-05-22T01:25:01.381Z,20.90
2023-05-22T01:28:11.976Z,20.90
2023-05-22T01:31:02.694Z,20.90
2023-05-22T01:33:39.014Z,21.00
2023-05-22T01:36:09.778Z,21.00
2023-05-22T01:38:37.224Z,20.90
2023-05-22T01:41:04.860Z,21.00
2023-05-22T01:43:31.712Z,21.00
2023-05-22T01:46:01.584Z,20.90
2023-05-22T01:48:28.592Z,20.90
2023-05-22T01:50:56.501Z,20.90
2023-05-22T01:53:51.992Z,20.90
2023-05-22T01:56:30.926Z,20.90
2023-05-22T01:59:09.593Z,20.90
2023-05-22T02:01:38.836Z,20.90
2023-05-22T02:04:06.580Z,20.90
2023-05-22T02:06:34.053Z,20.80
2023-05-22T02:09:02.955Z,20.80
2023-05-22T02:11:33.176Z,20.80
2023-05-22T02:14:01.958Z,20.80
2023-05-22T02:16:30.345Z,20.80
2023-05-22T02:19:06.128Z,20.80
2023-05-22T02:21:36.644Z,20.80
2023-05-22T02:24:04.002Z,20.70
2023-05-22T02:26:31.149Z,20.70
2023-05-22T02:28:59.423Z,20.70
2023-05-22T02:31:26.506Z,20.70
2023-05-22T02:33:53.942Z,20.70
2023-05-22T02:36:20.972Z,20.70
2023-05-22T02:38:48.117Z,20.70
2023-05-22T02:41:15.153Z,20.70
2023-05-22T02:43:42.107Z,20.70
2023-05-22T02:46:09.118Z,20.60
2023-05-22T02:48:36.376Z,20.60
2023-05-22T02:51:03.607Z,20.60
2023-05-22T02:53:30.749Z,20.50
2023-05-22T02:55:58.978Z,20.50
2023-05-22T02:58:26.155Z,20.50
2023-05-22T03:00:54.190Z,20.40
2023-05-22T03:03:21.225Z,20.40
2023-05-22T03:05:48.204Z,20.30
2023-05-22T03:08:16.090Z,20.30
2023-05-22T03:10:43.196Z,20.20
2023-05-22T03:13:10.277Z,20.20
2023-05-22T03:15:37.385Z,20.20
2023-05-22T03:18:11.987Z,20.10
2023-05-22T03:20:40.132Z,20.10
2023-05-22T03:23:07.168Z,20.20
2023-05-22T03:25:34.271Z,20.10
2023-05-22T03:28:02.185Z,20.20
2023-05-22T03:30:32.156Z,20.10
2023-05-22T03:33:10.491Z,20.10
2023-05-22T03:35:38.171Z,20.10
2023-05-22T03:38:05.370Z,20.00
2023-05-22T03:40:32.410Z,20.10
2023-05-22T03:42:59.882Z,20.00
2023-05-22T03:45:26.829Z,20.00
2023-05-22T03:47:54.131Z,19.90
2023-05-22T03:50:21.148Z,19.90
2023-05-22T03:52:48.074Z,19.90
2023-05-22T03:55:16.482Z,19.80
2023-05-22T03:57:43.497Z,19.80
2023-05-22T04:00:11.974Z,19.70
2023-05-22T04:02:45.235Z,19.70
2023-05-22T04:05:12.835Z,19.70
2023-05-22T04:07:39.817Z,19.70
2023-05-22T04:10:07.227Z,19.70
2023-05-22T04:12:34.372Z,19.60
2023-05-22T04:15:01.473Z,19.60
2023-05-22T04:17:33.752Z,19.60
2023-05-22T04:20:00.888Z,19.60
2023-05-22T04:22:28.087Z,19.60
2023-05-22T04:24:55.154Z,19.60
2023-05-22T04:27:22.768Z,19.60
2023-05-22T04:29:52.840Z,19.70
2023-05-22T04:32:21.728Z,19.60
2023-05-22T04:34:52.797Z,19.60
2023-05-22T04:37:20.468Z,19.60
2023-05-22T04:39:52.944Z,19.60
2023-05-22T04:42:20.631Z,19.60
2023-05-22T04:44:48.318Z,19.50
2023-05-22T04:47:15.442Z,19.50
2023-05-22T04:49:43.659Z,19.50
2023-05-22T04:52:11.582Z,19.50
2023-05-22T04:54:39.077Z,19.50
2023-05-22T04:57:06.305Z,19.50
2023-05-22T04:59:37.990Z,19.50
2023-05-22T05:02:05.896Z,19.50
2023-05-22T05:04:33.373Z,19.60
2023-05-22T05:07:00.463Z,19.60
2023-05-22T05:09:27.484Z,19.70
2023-05-22T05:11:55.186Z,19.70
2023-05-22T05:14:22.368Z,19.70
2023-05-22T05:16:51.853Z,19.70
2023-05-22T05:19:21.554Z,19.70
2023-05-22T05:21:49.761Z,19.80
2023-05-22T05:24:20.041Z,19.80
2023-05-22T05:26:48.560Z,19.80
2023-05-22T05:29:17.731Z,19.90
2023-05-22T05:31:59.418Z,19.90
2023-05-22T05:34:41.680Z,20.00
2023-05-22T05:37:28.917Z,20.10
2023-05-22T05:39:59.086Z,20.10
2023-05-22T05:42:26.027Z,20.20
2023-05-22T05:44:56.201Z,20.20
2023-05-22T05:47:25.084Z,20.30
2023-05-22T05:49:52.834Z,20.40
2023-05-22T05:52:20.167Z,20.40
2023-05-22T05:54:48.553Z,20.50
2023-05-22T05:57:20.682Z,20.60
2023-05-22T05:59:47.869Z,20.60
2023-05-22T06:02:35.049Z,20.60
2023-05-22T06:05:05.373Z,20.70
2023-05-22T06:07:38.090Z,20.70
2023-05-22T06:10:09.983Z,20.70
2023-05-22T06:12:49.891Z,20.80
2023-05-22T06:15:17.914Z,20.90
2023-05-22T06:17:44.828Z,20.90
2023-05-22T06:20:12.009Z,20.90
2023-05-22T06:22:39.001Z,21.00
2023-05-22T06:25:06.578Z,21.10
2023-05-22T06:27:34.343Z,21.10
2023-05-22T06:30:04.366Z,21.20
2023-05-22T06:32:35.824Z,21.20
2023-05-22T06:35:03.525Z,21.30
2023-05-22T06:37:33.046Z,21.30
2023-05-22T06:40:01.262Z,21.40
2023-05-22T06:42:34.178Z,21.40
2023-05-22T06:45:19.937Z,21.50
2023-05-22T06:48:06.018Z,21.70
2023-05-22T06:50:37.780Z,21.80
2023-05-22T06:53:04.863Z,21.90
2023-05-22T06:55:32.064Z,22.00
2023-05-22T06:58:09.041Z,22.10
2023-05-22T07:00:36.301Z,22.20
2023-05-22T07:03:15.292Z,22.40
2023-05-22T07:05:56.850Z,22.60
2023-05-22T07:08:24.298Z,22.80
2023-05-22T07:10:51.746Z,23.00
2023-05-22T07:13:18.843Z,23.10
2023-05-22T07:15:46.616Z,23.30
2023-05-22T07:18:13.701Z,23.50
2023-05-22T07:20:42.155Z,23.60
2023-05-22T07:23:15.826Z,23.70
2023-05-22T07:25:43.508Z,23.80
2023-05-22T07:28:12.125Z,24.00
2023-05-22T07:30:59.615Z,24.10
2023-05-22T07:33:26.925Z,24.30
2023-05-22T07:35:55.037Z,24.40
2023-05-22T07:38:22.383Z,24.50
2023-05-22T07:40:56.883Z,24.70
2023-05-22T07:43:25.375Z,24.80
2023-05-22T07:45:54.386Z,24.90
2023-05-22T07:48:24.924Z,25.00
2023-05-22T07:50:52.135Z,25.20
2023-05-22T07:53:19.062Z,25.30
2023-05-22T07:55:49.641Z,25.40
2023-05-22T07:58:16.793Z,25.40
2023-05-22T08:00:45.594Z,25.50
2023-05-22T08:03:13.495Z,25.60
2023-05-22T08:05:40.680Z,25.70
2023-05-22T08:08:07.848Z,25.80
2023-05-22T08:10:52.166Z,26.00
2023-05-22T08:13:22.881Z,26.20
2023-05-22T08:15:49.807Z,26.50
2023-05-22T08:18:16.784Z,26.60
2023-05-22T08:20:43.982Z,26.70
2023-05-22T08:23:11.000Z,26.80
2023-05-22T08:25:37.879Z,27.10
2023-05-22T08:28:04.976Z,27.20
2023-05-22T08:30:31.819Z,27.30
2023-05-22T08:32:58.791Z,27.40
2023-05-22T08:35:26.035Z,27.40
2023-05-22T08:37:53.048Z,27.60
2023-05-22T08:40:21.287Z,27.70
2023-05-22T08:42:48.947Z,27.70
2023-05-22T08:45:16.276Z,27.80
2023-05-22T08:47:44.423Z,27.80
2023-05-22T08:50:12.455Z,27.90
2023-05-22T08:52:50.215Z,28.00
2023-05-22T08:55:19.560Z,28.20
2023-05-22T08:57:47.082Z,28.20
2023-05-22T09:00:15.309Z,28.40
2023-05-22T09:02:42.715Z,28.50
2023-05-22T09:05:10.111Z,28.60
2023-05-22T09:07:38.118Z,28.70
2023-05-22T09:10:08.080Z,28.70
2023-05-22T09:12:35.164Z,28.60
2023-05-22T09:15:12.228Z,28.70
2023-05-22T09:17:41.019Z,28.80
2023-05-22T09:20:10.519Z,29.00
2023-05-22T09:22:38.378Z,29.10
2023-05-22T09:25:07.036Z,29.30
2023-05-22T09:27:34.509Z,29.30
2023-05-22T09:30:01.500Z,29.30
2023-05-22T09:32:31.129Z,29.40
2023-05-22T09:35:05.259Z,29.50
2023-05-22T09:37:36.618Z,29.70
2023-05-22T09:40:08.500Z,29.90
2023-05-22T09:42:35.834Z,29.90
2023-05-22T09:45:04.330Z,29.90
2023-05-22T09:47:31.420Z,30.00
2023-05-22T09:49:59.150Z,30.10
2023-05-22T09:52:33.291Z,30.20
2023-05-22T09:55:08.779Z,30.20
2023-05-22T09:57:44.102Z,30.30
2023-05-22T10:00:18.020Z,30.40
2023-05-22T10:03:03.992Z,30.50
2023-05-22T10:05:31.935Z,30.60
2023-05-22T10:08:14.877Z,30.70
2023-05-22T10:10:43.481Z,30.80
2023-05-22T10:13:11.430Z,31.00
2023-05-22T10:15:38.767Z,31.20
2023-05-22T10:18:06.151Z,31.20
2023-05-22T10:20:33.353Z,31.30
2023-05-22T10:23:03.353Z,31.30
2023-05-22T10:25:30.729Z,31.30
2023-05-22T10:27:59.511Z,31.30
2023-05-22T10:30:40.985Z,31.30
2023-05-22T10:33:33.393Z,31.40
2023-05-22T10:36:16.711Z,31.40
2023-05-22T10:39:01.170Z,31.50
2023-05-22T10:41:28.779Z,31.50
2023-05-22T10:43:57.542Z,31.60
2023-05-22T10:46:25.037Z,31.60
2023-05-22T10:48:54.286Z,31.60
2023-05-22T10:51:22.931Z,31.70
2023-05-22T10:53:57.922Z,31.70
2023-05-22T10:56:32.221Z,31.70
2023-05-22T10:59:10.492Z,31.80
2023-05-22T11:01:40.531Z,31.80
2023-05-22T11:04:12.680Z,31.80
2023-05-22T11:06:45.877Z,31.80
2023-05-22T11:09:48.983Z,31.70
2023-05-22T11:12:25.780Z,31.60
2023-05-22T11:14:59.917Z,31.60
2023-05-22T11:17:31.508Z,31.70
2023-05-22T11:20:00.046Z,31.60
2023-05-22T11:22:54.050Z,31.60
2023-05-22T11:25:22.520Z,31.60
2023-05-22T11:27:49.727Z,31.60
2023-05-22T11:30:17.703Z,31.60
2023-05-22T11:32:45.947Z,31.60
2023-05-22T11:35:17.807Z,31.60
2023-05-22T11:37:45.578Z,31.60
2023-05-22T11:40:15.641Z,31.60
2023-05-22T11:42:42.623Z,31.60
2023-05-22T11:45:10.156Z,31.70
2023-05-22T11:47:37.813Z,31.60
2023-05-22T11:50:06.812Z,31.50
2023-05-22T11:52:35.301Z,31.40
2023-05-22T11:55:05.682Z,31.50
2023-05-22T11:57:32.872Z,31.40
2023-05-22T11:59:59.982Z,31.50
2023-05-22T12:02:27.423Z,31.50
2023-05-22T12:04:55.955Z,31.40
2023-05-22T12:07:23.911Z,31.50
2023-05-22T12:09:50.949Z,31.50
2023-05-22T12:12:19.424Z,31.60
2023-05-22T12:14:48.747Z,31.60
2023-05-22T12:17:17.425Z,31.70
2023-05-22T12:19:47.249Z,31.60
2023-05-22T12:22:14.520Z,31.50
2023-05-22T12:24:42.687Z,31.50
2023-05-22T12:27:10.561Z,31.30
2023-05-22T12:29:41.842Z,31.30
2023-05-22T12:32:11.182Z,31.30
2023-05-22T12:34:47.093Z,31.30
2023-05-22T12:37:28.030Z,31.40
2023-05-22T12:39:59.370Z,31.50
2023-05-22T12:42:27.364Z,31.50
2023-05-22T12:44:55.517Z,31.40
2023-05-22T12:47:23.894Z,31.40
2023-05-22T12:49:51.569Z,31.20
2023-05-22T12:52:18.726Z,31.00
2023-05-22T12:54:46.202Z,30.90
2023-05-22T12:57:13.188Z,30.80
2023-05-22T12:59:40.059Z,30.70
2023-05-22T13:02:07.796Z,30.60
2023-05-22T13:04:34.826Z,30.50
2023-05-22T13:07:01.702Z,30.40
2023-05-22T13:09:28.841Z,30.30
2023-05-22T13:11:55.826Z,30.30
2023-05-22T13:14:22.807Z,30.20
2023-05-22T13:16:49.986Z,30.20
2023-05-22T13:19:17.096Z,30.10
2023-05-22T13:21:44.176Z,30.10
2023-05-22T13:24:11.205Z,30.10
2023-05-22T13:26:38.548Z,30.00
2023-05-22T13:29:05.537Z,29.90
2023-05-22T13:31:37.673Z,29.90
2023-05-22T13:34:05.153Z,29.80
2023-05-22T13:36:34.423Z,29.80
2023-05-22T13:39:01.538Z,29.70
2023-05-22T13:41:28.660Z,29.50
2023-05-22T13:43:55.585Z,29.50
2023-05-22T13:46:22.747Z,29.40
2023-05-22T13:48:49.785Z,29.30
2023-05-22T13:51:16.760Z,29.20
2023-05-22T13:53:43.796Z,29.20
2023-05-22T13:56:10.731Z,29.30
2023-05-22T13:58:37.583Z,29.30
2023-05-22T14:01:04.588Z,29.30
2023-05-22T14:03:31.688Z,29.20
2023-05-22T14:05:58.615Z,29.20
2023-05-22T14:08:25.670Z,29.10
2023-05-22T14:10:52.847Z,29.00
2023-05-22T14:13:19.872Z,28.90
2023-05-22T14:15:47.108Z,28.90
2023-05-22T14:18:16.425Z,28.90
2023-05-22T14:20:43.982Z,29.00
2023-05-22T14:23:11.790Z,29.00
2023-05-22T14:25:42.874Z,29.00
2023-05-22T14:28:10.967Z,29.00
2023-05-22T14:30:38.171Z,28.90
2023-05-22T14:33:05.770Z,28.90
2023-05-22T14:35:33.151Z,28.90
2023-05-22T14:38:00.464Z,28.90
2023-05-22T14:40:27.349Z,28.90
2023-05-22T14:42:54.555Z,29.00
2023-05-22T14:45:21.961Z,29.00
2023-05-22T14:47:48.955Z,29.00
2023-05-22T14:50:20.000Z,28.90
2023-05-22T14:52:49.110Z,28.70
2023-05-22T14:55:16.925Z,28.70
2023-05-22T14:57:44.074Z,28.60
2023-05-22T15:00:12.368Z,28.60
2023-05-22T15:02:39.959Z,28.60
2023-05-22T15:05:07.786Z,28.50
2023-05-22T15:07:44.054Z,28.50
2023-05-22T15:10:12.917Z,28.40
2023-05-22T15:12:39.927Z,28.40
2023-05-22T15:15:07.364Z,28.20
2023-05-22T15:17:34.422Z,28.00
2023-05-22T15:20:01.516Z,27.90
2023-05-22T15:22:28.402Z,27.80
2023-05-22T15:25:06.905Z,27.70
2023-05-22T15:27:35.604Z,27.70
2023-05-22T15:30:03.368Z,27.70
2023-05-22T15:32:32.848Z,27.80
2023-05-22T15:34:59.925Z,27.70
2023-05-22T15:37:29.057Z,27.80
2023-05-22T15:39:57.302Z,27.70
2023-05-22T15:42:24.733Z,27.70
2023-05-22T15:44:51.700Z,27.70
2023-05-22T15:47:18.593Z,27.70
2023-05-22T15:49:45.941Z,27.70
2023-05-22T15:52:12.895Z,27.70
2023-05-22T15:54:39.962Z,27.70
2023-05-22T15:57:07.089Z,27.70
2023-05-22T15:59:34.099Z,27.70
2023-05-22T16:02:01.163Z,27.70
2023-05-22T16:04:28.124Z,27.70
2023-05-22T16:06:55.145Z,27.60
2023-05-22T16:09:22.048Z,27.70
2023-05-22T16:11:49.287Z,27.60
2023-05-22T16:14:16.284Z,27.60
2023-05-22T16:16:43.877Z,27.50
2023-05-22T16:19:11.508Z,27.60
2023-05-22T16:21:38.949Z,27.50
2023-05-22T16:24:07.043Z,27.50
2023-05-22T16:26:34.119Z,27.50
2023-05-22T16:29:01.126Z,27.50
2023-05-22T16:31:28.898Z,27.40
2023-05-22T16:33:56.027Z,27.40
2023-05-22T16:36:24.616Z,27.40
2023-05-22T16:38:53.369Z,27.40
2023-05-22T16:41:20.237Z,27.40
2023-05-22T16:43:47.252Z,27.40
2023-05-22T16:46:14.260Z,27.40
2023-05-22T16:48:41.265Z,27.40
2023-05-22T16:51:08.663Z,27.40
2023-05-22T16:53:38.120Z,27.40
2023-05-22T16:56:05.674Z,27.40
2023-05-22T16:58:32.721Z,27.30
2023-05-22T17:00:59.962Z,27.30
2023-05-22T17:03:27.030Z,27.20
2023-05-22T17:05:55.077Z,27.10
2023-05-22T17:08:22.116Z,27.10
2023-05-22T17:10:49.000Z,27.10
2023-05-22T17:13:20.964Z,27.00
2023-05-22T17:15:51.935Z,27.00
2023-05-22T17:18:19.941Z,26.90
2023-05-22T17:20:51.275Z,26.80
2023-05-22T17:23:18.440Z,26.80
2023-05-22T17:25:46.858Z,26.70
2023-05-22T17:28:14.601Z,26.60
2023-05-22T17:30:43.017Z,26.60
2023-05-22T17:33:12.239Z,26.50
2023-05-22T17:35:39.291Z,26.50
2023-05-22T17:38:08.608Z,26.40
2023-05-22T17:40:44.059Z,26.40
2023-05-22T17:43:12.393Z,26.40
2023-05-22T17:45:39.465Z,26.30
2023-05-22T17:48:07.622Z,26.30
2023-05-22T17:50:34.579Z,26.20
2023-05-22T17:53:01.716Z,26.10
2023-05-22T17:55:28.610Z,26.00
2023-05-22T17:57:56.303Z,26.10
2023-05-22T18:00:23.294Z,26.00
2023-05-22T18:02:50.619Z,26.00
2023-05-22T18:05:17.841Z,26.00
2023-05-22T18:07:44.702Z,26.00
2023-05-22T18:10:11.766Z,26.00
2023-05-22T18:12:38.904Z,25.90
2023-05-22T18:15:09.442Z,25.90
2023-05-22T18:17:36.508Z,25.80
2023-05-22T18:20:06.410Z,25.80
2023-05-22T18:22:33.258Z,25.80
2023-05-22T18:25:00.222Z,25.80
2023-05-22T18:27:27.763Z,25.70
2023-05-22T18:29:55.686Z,25.70
2023-05-22T18:32:22.936Z,25.60
2023-05-22T18:34:50.246Z,25.60
2023-05-22T18:37:17.162Z,25.50
2023-05-22T18:39:44.293Z,25.50
2023-05-22T18:42:11.701Z,25.50
2023-05-22T18:44:38.520Z,25.40
2023-05-22T18:47:06.039Z,25.40
2023-05-22T18:49:33.634Z,25.30
2023-05-22T18:52:00.495Z,25.30
2023-05-22T18:54:27.398Z,25.30
2023-05-22T18:56:54.493Z,25.20
2023-05-22T18:59:21.386Z,25.20
2023-05-22T19:01:48.283Z,25.20
2023-05-22T19:04:15.436Z,25.10
2023-05-22T19:06:42.468Z,25.10
2023-05-22T19:09:10.002Z,25.10
2023-05-22T19:11:37.179Z,25.10
2023-05-22T19:14:04.300Z,25.10
2023-05-22T19:16:31.211Z,25.10
2023-05-22T19:18:58.421Z,25.00
2023-05-22T19:21:26.404Z,25.00
2023-05-22T19:23:53.333Z,24.90
2023-05-22T19:26:20.487Z,24.90
2023-05-22T19:28:47.392Z,24.80
2023-05-22T19:31:14.362Z,24.80
2023-05-22T19:33:41.352Z,24.70
2023-05-22T19:36:08.355Z,24.70
2023-05-22T19:38:35.373Z,24.70
2023-05-22T19:41:02.361Z,24.70
2023-05-22T19:43:31.309Z,24.60
2023-05-22T19:45:58.557Z,24.60
2023-05-22T19:48:26.929Z,24.60
2023-05-22T19:50:53.791Z,24.50
2023-05-22T19:53:20.718Z,24.50
2023-05-22T19:55:47.852Z,24.40
2023-05-22T19:58:14.708Z,24.40
2023-05-22T20:00:42.340Z,24.40
2023-05-22T20:03:09.861Z,24.30
2023-05-22T20:05:36.961Z,24.30
2023-05-22T20:08:03.910Z,24.30
2023-05-22T20:10:32.334Z,24.20
2023-05-22T20:13:00.341Z,24.10
2023-05-22T20:15:27.466Z,24.10
2023-05-22T20:17:55.026Z,24.00
2023-05-22T20:20:24.881Z,23.90
2023-05-22T20:22:53.728Z,23.90
2023-05-22T20:25:21.653Z,23.80
2023-05-22T20:27:48.883Z,23.70
2023-05-22T20:30:16.200Z,23.60
2023-05-22T20:32:45.739Z,23.50
2023-05-22T20:35:13.320Z,23.50
2023-05-22T20:37:41.728Z,23.40
2023-05-22T20:40:09.724Z,23.20
2023-05-22T20:42:37.774Z,23.20
2023-05-22T20:45:08.806Z,23.10
2023-05-22T20:47:36.266Z,23.00
2023-05-22T20:50:03.535Z,22.90
2023-05-22T20:52:30.504Z,22.80
2023-05-22T20:54:58.480Z,22.70
2023-05-22T20:57:25.881Z,22.70
2023-05-22T20:59:54.949Z,22.60
2023-05-22T21:02:22.003Z,22.60
2023-05-22T21:04:48.901Z,22.50
2023-05-22T21:07:16.118Z,22.50
2023-05-22T21:09:43.187Z,22.50
2023-05-22T21:12:10.051Z,22.40
2023-05-22T21:14:36.939Z,22.30
2023-05-22T21:17:04.217Z,22.30
2023-05-22T21:19:31.336Z,22.20
2023-05-22T21:21:58.353Z,22.10
2023-05-22T21:24:25.379Z,22.00
2023-05-22T21:26:52.340Z,21.90
2023-05-22T21:29:19.240Z,21.80
2023-05-22T21:31:46.272Z,21.80
2023-05-22T21:34:13.134Z,21.70
2023-05-22T21:36:40.074Z,21.70
2023-05-22T21:39:07.154Z,21.70
2023-05-22T21:41:34.116Z,21.60
2023-05-22T21:44:01.296Z,21.60
2023-05-22T21:46:28.283Z,21.50
2023-05-22T21:48:55.430Z,21.40
2023-05-22T21:51:22.377Z,21.40
2023-05-22T21:53:49.630Z,21.30
2023-05-22T21:56:16.481Z,21.20
2023-05-22T21:58:43.397Z,21.20
2023-05-22T22:01:10.657Z,21.20
2023-05-22T22:03:38.839Z,21.10
2023-05-22T22:06:06.260Z,21.00
2023-05-22T22:08:33.368Z,20.90
2023-05-22T22:11:00.311Z,20.90
2023-05-22T22:13:27.235Z,20.90
2023-05-22T22:15:54.139Z,20.90
2023-05-22T22:18:22.052Z,21.00
2023-05-22T22:20:53.963Z,21.00
2023-05-22T22:23:21.925Z,21.00
2023-05-22T22:25:49.291Z,21.00
2023-05-22T22:28:16.288Z,20.90
2023-05-22T22:30:43.232Z,20.90
2023-05-22T22:33:10.313Z,20.90
2023-05-22T22:35:37.635Z,20.90
2023-05-22T22:38:04.703Z,20.90
2023-05-22T22:40:31.718Z,20.80
2023-05-22T22:42:58.549Z,20.80
2023-05-22T22:45:25.900Z,20.80
2023-05-22T22:47:53.187Z,20.80
2023-05-22T22:50:20.106Z,20.80
2023-05-22T22:52:47.488Z,20.70
2023-05-22T22:55:14.521Z,20.70
2023-05-22T22:57:46.999Z,20.70
2023-05-22T23:00:14.419Z,20.70
2023-05-22T23:02:41.330Z,20.70
2023-05-22T23:05:08.942Z,20.80
2023-05-22T23:07:36.198Z,20.70
2023-05-22T23:10:03.109Z,20.70
2023-05-22T23:12:32.853Z,20.70
2023-05-22T23:14:59.902Z,20.60
2023-05-22T23:17:26.838Z,20.70
2023-05-22T23:19:53.676Z,20.60
2023-05-22T23:22:20.641Z,20.60
2023-05-22T23:24:47.719Z,20.60
2023-05-22T23:27:15.687Z,20.50
2023-05-22T23:29:42.767Z,20.50
2023-05-22T23:32:10.259Z,20.50
2023-05-22T23:34:38.348Z,20.50
2023-05-22T23:37:05.424Z,20.40
2023-05-22T23:39:32.269Z,20.40
2023-05-22T23:42:02.146Z,20.40
2023-05-22T23:44:32.109Z,20.40
2023-05-22T23:46:59.737Z,20.50
2023-05-22T23:49:26.829Z,20.50
2023-05-22T23:51:53.991Z,20.40
2023-05-22T23:54:21.044Z,20.40
2023-05-22T23:56:47.971Z,20.40
2023-05-22T23:59:15.931Z,20.40
